Forside
METAR-TAF:

METAR-TAF

Lufthavne :

Shōnai, Japan

Breddekreds: 38-49N, længdekreds: 139-47E, højde: 22 m

Aktuelle vejr

Denne rapport blev lavet for 1 time og 9 minutter siden, kl. 02:00 UTC
Vind 11 kt fra vest
Temperatur 19°C
Fugtighed 78%
Tryk 1010 hPa
Sigt 10 km eller mere
Nogle få skyer i en højde af 1500 ft
Brudte skyer

METAR: RJSY 250200Z 27011KT 9999 FEW015 BKN/// 19/15 Q1010

Tid: 12:09 (03:09 UTC)


TAF: fraværende

Vejrobservationer og prognoser fra mere end 4000 lufthavne (METAR og TAF).

De gule og røde prikker repræsenterer de meteorologiske stationer.

Flyt musen over at se navnet på stationen.

Så klik over at se vejr observationer og prognoser.

At skifte det kort: Klik på de grønne knapper med et sort kors for at zoome ind; på den grønne knap med en bindestreg for at zoome ud; eller på de grønne pile for tilstødende kort.


METAR-TAF: